PAEN/ENA METAR and TAF weather

Enter ICAO airport designator
Station Type Date Time Source
PAEN METAR 2020/09/25 05:53 UTC NOAA

PAEN 250553Z 36005KT 9SM -RA BKN017 OVC025 09/08 A2922 RMK AO2 SLP898 P0000 60000 T00940078 10111 20094 52002


Station Type Date Time Source
PAEN Decoded METAR 2020/09/25 05:53 UTC NOAA

KENAI MUNICIPAL AIRPORT, AK, United States (PAEN) 60-35N 151-14W 25M
Sep 25, 2020 - 01:53 AM EDT / 2020.09.25 0553 UTC
Wind: from the N (360 degrees) at 6 MPH (5 KT):0
Visibility: 9 mile(s):0
Sky conditions: overcast
Weather: light rain
Precipitation last hour: A trace
Temperature: 48.9 F (9.4 C)
Dew Point: 46.0 F (7.8 C)
Relative Humidity: 89%
Pressure (altimeter): 29.22 in. Hg (989 hPa)
Pressure tendency: 0.01 inches (0.2 hPa) higher than three hours ago
ob: PAEN 250553Z 36005KT 9SM -RA BKN017 OVC025 09/08 A2922 RMK AO2 SLP898 P0000 60000 T00940078 10111 20094 52002
cycle: 6

Station Type Date Time Source
PAEN TAF 2020/09/25 06:22 UTC NOAA

TAF PAEN 250520Z 2506/2606 02005KT P6SM -RA SCT010 OVC025
TEMPO 2506/2509 SCT025 BKN035
FM251200 VRB04KT P6SM -RA BKN015
FM252200 35008KT P6SM VCSH SCT020 BKN040

Example: see airport list